Time;durP1;ratioP1;P1;durP2;ratioP2;P2;SDS_P1;SDS_P2;PMS_P1;PMS_P2;Temp;Humidity;BMP_temperature;BMP_pressure;BME280_temperature;BME280_humidity;BME280_pressure;Samples;Min_cycle;Max_cycle;Signal;HPM_P1;HPM_P2
2022/03/14 00:00:10;;;;;;;1.73;0.10;;;11.40;99.90;;;;;;5095551;28;20012;-76
2022/03/14 00:02:36;;;;;;;0.55;0.08;;;11.40;99.90;;;;;;5095481;28;20024;-76
2022/03/14 00:05:05;;;;;;;0.30;0.20;;;11.40;99.90;;;;;;5094970;28;20039;-75
2022/03/14 00:07:34;;;;;;;;;;;11.40;99.90;;;;;;5094048;28;20020;-75
2022/03/14 00:10:01;;;;;;;0.20;0.00;;;11.30;99.90;;;;;;5094973;28;19931;-76
2022/03/14 00:12:28;;;;;;;0.30;0.00;;;11.20;99.90;;;;;;5095264;28;20043;-75
2022/03/14 00:14:55;;;;;;;0.10;0.00;;;11.20;99.90;;;;;;5095035;28;20067;-76
2022/03/14 00:17:23;;;;;;;0.60;0.00;;;11.20;99.90;;;;;;5093507;28;20016;-76
2022/03/14 00:19:50;;;;;;;0.35;0.10;;;11.10;99.90;;;;;;5094557;28;20051;-76
2022/03/14 00:22:19;;;;;;;0.30;0.10;;;11.10;99.90;;;;;;5095237;28;20464;-76
2022/03/14 00:24:45;;;;;;;1.13;0.20;;;11.00;99.90;;;;;;5094861;28;20039;-76
2022/03/14 00:27:11;;;;;;;0.35;0.00;;;11.10;99.90;;;;;;5094883;28;20028;-75
2022/03/14 00:29:37;;;;;;;0.30;0.00;;;11.10;99.90;;;;;;5095025;28;20036;-75
2022/03/14 00:32:03;;;;;;;0.20;0.03;;;11.10;99.90;;;;;;5110441;28;20103;-75
2022/03/14 00:34:28;;;;;;;0.90;0.20;;;11.00;99.90;;;;;;5094588;28;20497;-76
2022/03/14 00:36:54;;;;;;;0.25;0.10;;;11.10;99.90;;;;;;5093321;28;20016;-75
2022/03/14 00:39:20;;;;;;;0.88;0.00;;;11.00;99.90;;;;;;5093308;28;20115;-76
2022/03/14 00:41:46;;;;;;;2.92;0.00;;;11.00;99.90;;;;;;5093320;28;20147;-75
2022/03/14 00:44:16;;;;;;;0.20;0.13;;;11.00;99.90;;;;;;5094592;28;20016;-75
2022/03/14 00:46:43;;;;;;;0.15;0.03;;;11.00;99.90;;;;;;5094804;28;20031;-75
2022/03/14 00:49:09;;;;;;;0.40;0.20;;;11.00;99.90;;;;;;5094322;28;20020;-75
2022/03/14 00:51:35;;;;;;;0.55;0.00;;;11.10;99.90;;;;;;5093221;28;20118;-75
2022/03/14 00:54:04;;;;;;;0.10;0.00;;;11.10;99.90;;;;;;5094348;28;20048;-75
2022/03/14 00:56:30;;;;;;;0.60;0.00;;;11.10;99.90;;;;;;5094840;28;20016;-75
2022/03/14 00:58:58;;;;;;;0.13;0.00;;;11.10;99.90;;;;;;5094126;28;20416;-76
2022/03/14 01:01:24;;;;;;;1.05;0.10;;;11.10;99.90;;;;;;5092785;28;20058;-75
2022/03/14 01:03:50;;;;;;;0.20;0.00;;;11.10;99.90;;;;;;5094196;28;20100;-76
2022/03/14 01:06:15;;;;;;;0.03;0.00;;;11.10;99.90;;;;;;5094632;28;20480;-75
2022/03/14 01:08:41;;;;;;;1.85;0.10;;;11.10;99.90;;;;;;5093995;28;20032;-75
2022/03/14 01:11:06;;;;;;;0.00;0.00;;;11.10;99.90;;;;;;5094206;28;20024;-76
2022/03/14 01:13:32;;;;;;;0.55;0.10;;;11.20;99.90;;;;;;5092657;28;20020;-75
2022/03/14 01:15:59;;;;;;;0.35;0.00;;;11.10;99.90;;;;;;5093971;28;20020;-75
2022/03/14 01:18:25;;;;;;;0.50;0.10;;;11.10;99.90;;;;;;5092338;28;20090;-75
2022/03/14 01:20:51;;;;;;;1.77;0.28;;;11.10;99.90;;;;;;5092960;28;20047;-76
2022/03/14 01:23:18;;;;;;;0.40;0.00;;;11.10;99.90;;;;;;5092561;28;20028;-76
2022/03/14 01:25:45;;;;;;;0.20;0.10;;;11.00;99.90;;;;;;5092783;28;20481;-76
2022/03/14 01:28:11;;;;;;;0.57;0.00;;;11.00;99.90;;;;;;5093725;28;20508;-76
2022/03/14 01:30:37;;;;;;;0.28;0.03;;;10.90;99.90;;;;;;5092727;28;20020;-76
2022/03/14 01:33:03;;;;;;;0.20;0.10;;;11.00;99.90;;;;;;5093674;28;20393;-76
2022/03/14 01:35:29;;;;;;;1.20;0.10;;;11.00;99.90;;;;;;5094295;28;20016;-77
2022/03/14 01:37:55;;;;;;;0.65;0.10;;;11.00;99.90;;;;;;5093592;28;20046;-76
2022/03/14 01:40:21;;;;;;;0.45;0.00;;;11.00;99.90;;;;;;5092533;28;20048;-76
2022/03/14 01:42:47;;;;;;;0.90;0.10;;;11.00;99.90;;;;;;5093475;28;20062;-77
2022/03/14 01:45:15;;;;;;;0.32;0.13;;;11.00;99.90;;;;;;5093920;28;20024;-77
2022/03/14 01:47:42;;;;;;;0.47;0.13;;;10.90;99.90;;;;;;5093313;28;20070;-76
2022/03/14 01:50:09;;;;;;;0.93;0.00;;;10.90;99.90;;;;;;5093766;28;20027;-76
2022/03/14 01:52:35;;;;;;;0.88;0.10;;;10.90;99.90;;;;;;5094056;28;20035;-76
2022/03/14 01:55:02;;;;;;;0.80;0.15;;;10.90;99.90;;;;;;5093847;28;20024;-77
2022/03/14 01:57:29;;;;;;;1.02;0.20;;;10.80;99.90;;;;;;5093364;28;20106;-77
2022/03/14 01:59:55;;;;;;;0.17;0.15;;;10.80;99.90;;;;;;5093857;28;20012;-77
2022/03/14 02:02:21;;;;;;;0.63;0.10;;;10.80;99.90;;;;;;5093203;28;20020;-74
2022/03/14 02:04:47;;;;;;;1.75;0.32;;;10.80;99.90;;;;;;5093501;28;20024;-75
2022/03/14 02:07:13;;;;;;;0.93;0.10;;;10.80;99.90;;;;;;5092027;28;20020;-75
2022/03/14 02:09:39;;;;;;;0.30;0.03;;;10.80;99.90;;;;;;5093121;28;20035;-76
2022/03/14 02:12:07;;;;;;;0.40;0.10;;;10.80;99.90;;;;;;5093883;28;20051;-76
2022/03/14 02:14:36;;;;;;;0.40;0.08;;;10.70;99.90;;;;;;5096338;28;20016;-76
2022/03/14 02:17:02;;;;;;;1.90;0.00;;;10.70;99.90;;;;;;5097666;28;20020;-76
2022/03/14 02:19:27;;;;;;;2.08;0.13;;;10.70;99.90;;;;;;5097920;28;20142;-76
2022/03/14 02:21:53;;;;;;;0.45;0.10;;;10.70;99.90;;;;;;5097939;28;20031;-76
2022/03/14 02:24:21;;;;;;;0.50;0.10;;;10.60;99.90;;;;;;5098814;28;20484;-77
2022/03/14 02:26:47;;;;;;;0.17;0.00;;;10.60;99.90;;;;;;5096440;28;20077;-76
2022/03/14 02:29:13;;;;;;;0.52;0.25;;;10.50;99.90;;;;;;5097423;28;20024;-76
2022/03/14 02:31:39;;;;;;;0.30;0.00;;;10.50;99.90;;;;;;5097868;28;20050;-76
2022/03/14 02:34:07;;;;;;;0.40;0.00;;;10.50;99.90;;;;;;5095597;28;20020;-76
2022/03/14 02:36:33;;;;;;;0.95;0.20;;;10.50;99.90;;;;;;5097514;28;20016;-76
2022/03/14 02:38:58;;;;;;;0.25;0.00;;;10.50;99.90;;;;;;5097123;28;20024;-77
2022/03/14 02:41:25;;;;;;;0.57;0.10;;;10.50;99.90;;;;;;5097718;28;20023;-76
2022/03/14 02:43:51;;;;;;;1.83;0.17;;;10.50;99.90;;;;;;5095886;28;20434;-76
2022/03/14 02:46:17;;;;;;;2.83;0.10;;;10.50;99.90;;;;;;5095536;28;20055;-76
2022/03/14 02:48:43;;;;;;;0.40;0.10;;;10.50;99.90;;;;;;5095367;28;20024;-76
2022/03/14 02:51:09;;;;;;;0.57;0.00;;;10.50;99.90;;;;;;5096633;28;20506;-77
2022/03/14 02:53:35;;;;;;;0.35;0.10;;;10.50;99.90;;;;;;5096107;28;20052;-76
2022/03/14 02:56:00;;;;;;;2.25;0.10;;;10.50;99.90;;;;;;5097565;28;20484;-77
2022/03/14 02:58:28;;;;;;;0.73;0.08;;;10.50;99.90;;;;;;5096047;28;20048;-77
2022/03/14 03:00:55;;;;;;;1.05;0.15;;;10.50;99.90;;;;;;5097142;28;20016;-77
2022/03/14 03:03:21;;;;;;;0.68;0.20;;;10.60;99.90;;;;;;5096299;28;20020;-76
2022/03/14 03:05:46;;;;;;;0.20;0.00;;;10.60;99.90;;;;;;5096734;28;20028;-76
2022/03/14 03:08:13;;;;;;;0.50;0.10;;;10.60;99.90;;;;;;5096739;28;20024;-76
2022/03/14 03:10:39;;;;;;;0.88;0.20;;;10.60;99.90;;;;;;5096809;28;20024;-76
2022/03/14 03:13:05;;;;;;;0.73;0.20;;;10.60;99.90;;;;;;5096356;28;20111;-77
2022/03/14 03:15:31;;;;;;;0.90;0.20;;;10.90;99.90;;;;;;5096486;28;20473;-77
2022/03/14 03:17:56;;;;;;;1.00;0.00;;;10.70;99.90;;;;;;5094589;28;20024;-76
2022/03/14 03:20:22;;;;;;;0.30;0.10;;;10.60;99.90;;;;;;5096788;28;20077;-76
2022/03/14 03:22:49;;;;;;;0.55;0.15;;;10.60;99.90;;;;;;5095232;28;20016;-77
2022/03/14 03:25:15;;;;;;;0.40;0.10;;;10.60;99.90;;;;;;5111930;28;20020;-77
2022/03/14 03:27:41;;;;;;;0.45;0.10;;;10.60;99.90;;;;;;5094821;28;20024;-77
2022/03/14 03:30:07;;;;;;;0.60;0.10;;;10.60;99.90;;;;;;5096277;28;20035;-77
2022/03/14 03:32:32;;;;;;;0.50;0.10;;;10.50;99.90;;;;;;5111429;28;20048;-77
2022/03/14 03:34:58;;;;;;;0.90;0.17;;;10.50;99.90;;;;;;5095924;28;20050;-76
2022/03/14 03:37:24;;;;;;;0.77;0.17;;;10.50;99.90;;;;;;5094973;28;20019;-76
2022/03/14 03:39:49;;;;;;;1.25;0.30;;;10.40;99.90;;;;;;5094740;28;20020;-76
2022/03/14 03:42:15;;;;;;;0.35;0.35;;;10.40;99.90;;;;;;5094518;28;20439;-77
2022/03/14 03:44:40;;;;;;;0.95;0.30;;;10.50;99.90;;;;;;5095741;28;20020;-77
2022/03/14 03:47:06;;;;;;;0.85;0.30;;;10.40;99.90;;;;;;5095667;28;20491;-77
2022/03/14 03:49:32;;;;;;;1.00;0.20;;;10.40;99.90;;;;;;5095649;28;20516;-76
2022/03/14 03:51:57;;;;;;;1.42;0.30;;;10.40;99.90;;;;;;5094506;28;20114;-76
2022/03/14 03:54:23;;;;;;;1.35;0.30;;;10.40;99.90;;;;;;5095657;28;20111;-76
2022/03/14 03:56:49;;;;;;;1.13;0.47;;;10.40;99.90;;;;;;5095591;28;20039;-76
2022/03/14 03:59:15;;;;;;;2.22;0.30;;;10.40;99.90;;;;;;5094276;28;20024;-76
2022/03/14 04:01:43;;;;;;;1.67;0.43;;;10.30;99.90;;;;;;5095058;28;20458;-77
2022/03/14 04:04:09;;;;;;;1.33;0.73;;;10.30;99.90;;;;;;5095043;28;20393;-77
2022/03/14 04:06:35;;;;;;;2.83;1.15;;;10.40;99.90;;;;;;5094158;28;20021;-76
2022/03/14 04:09:05;;;;;;;2.10;1.00;;;10.20;99.90;;;;;;5095712;28;20032;-77
2022/03/14 04:11:31;;;;;;;1.55;0.70;;;10.20;99.90;;;;;;5095050;28;20107;-77
2022/03/14 04:13:58;;;;;;;1.85;0.93;;;10.10;99.90;;;;;;5096050;28;20111;-76
2022/03/14 04:16:24;;;;;;;2.38;1.20;;;10.20;99.90;;;;;;5095606;28;20104;-77
2022/03/14 04:18:50;;;;;;;2.88;1.23;;;10.20;99.90;;;;;;5094632;28;20122;-76
2022/03/14 04:21:16;;;;;;;2.60;1.27;;;10.20;99.90;;;;;;5095238;28;20052;-76
2022/03/14 04:23:42;;;;;;;2.38;1.15;;;10.10;99.90;;;;;;5093848;28;20024;-76
2022/03/14 04:26:09;;;;;;;2.53;1.42;;;10.10;99.90;;;;;;5093954;28;20473;-77
2022/03/14 04:28:36;;;;;;;2.85;1.50;;;10.10;99.90;;;;;;5095463;28;20024;-76
2022/03/14 04:31:03;;;;;;;3.40;1.95;;;10.10;99.90;;;;;;5094856;28;20055;-76
2022/03/14 04:33:30;;;;;;;2.92;1.77;;;10.10;99.90;;;;;;5095359;28;20027;-77
2022/03/14 04:35:56;;;;;;;3.10;1.63;;;10.00;99.90;;;;;;5094110;28;20135;-77
2022/03/14 04:38:21;;;;;;;3.30;1.67;;;10.00;99.90;;;;;;5097862;28;20508;-77
2022/03/14 04:40:48;;;;;;;5.30;2.60;;;9.90;99.90;;;;;;5097381;28;20103;-77
2022/03/14 04:43:13;;;;;;;5.03;2.97;;;9.80;99.90;;;;;;5093724;28;20050;-77
2022/03/14 04:45:40;;;;;;;5.40;2.85;;;9.70;99.90;;;;;;5094571;28;20032;-77
2022/03/14 04:48:06;;;;;;;5.60;3.25;;;9.60;99.90;;;;;;5092902;28;20027;-77
2022/03/14 04:50:32;;;;;;;7.05;3.35;;;9.50;99.90;;;;;;5093227;28;20028;-77
2022/03/14 04:52:58;;;;;;;7.82;4.03;;;9.40;99.90;;;;;;5094218;28;20504;-77
2022/03/14 04:55:24;;;;;;;9.18;4.40;;;9.20;99.90;;;;;;5092894;28;20012;-77
2022/03/14 04:57:50;;;;;;;9.27;4.63;;;9.20;99.90;;;;;;5093059;28;20020;-77
2022/03/14 05:00:15;;;;;;;7.30;4.25;;;9.20;99.90;;;;;;5094443;28;20096;-77
2022/03/14 05:02:41;;;;;;;7.93;4.50;;;9.20;99.90;;;;;;5092946;28;20013;-77
2022/03/14 05:05:11;;;;;;;7.05;4.03;;;9.10;99.90;;;;;;5092081;28;20028;-77
2022/03/14 05:07:40;;;;;;;8.63;4.25;;;9.10;99.90;;;;;;5093988;28;20020;-77
2022/03/14 05:10:09;;;;;;;7.50;4.00;;;8.80;99.90;;;;;;5094098;28;20039;-77
2022/03/14 05:12:35;;;;;;;8.40;5.15;;;9.00;99.90;;;;;;5092904;28;20024;-77
2022/03/14 05:15:04;;;;;;;9.77;5.43;;;9.00;99.90;;;;;;5093830;28;20020;-77
2022/03/14 05:17:32;;;;;;;;;;;9.00;99.90;;;;;;5093897;28;20507;-77
2022/03/14 05:19:58;;;;;;;8.65;5.15;;;9.00;99.90;;;;;;5094204;28;19911;-77
2022/03/14 05:22:24;;;;;;;9.98;5.43;;;8.90;99.90;;;;;;5093804;28;20452;-77
2022/03/14 05:24:50;;;;;;;10.50;5.18;;;8.90;99.90;;;;;;5093913;28;20560;-77
2022/03/14 05:27:15;;;;;;;11.48;5.57;;;9.00;99.90;;;;;;5092602;28;20026;-77
2022/03/14 05:29:41;;;;;;;9.82;5.25;;;8.90;99.90;;;;;;5093656;28;20046;-77
2022/03/14 05:32:08;;;;;;;13.02;6.70;;;8.90;99.90;;;;;;5093769;28;20062;-77
2022/03/14 05:34:34;;;;;;;13.00;6.97;;;8.90;99.90;;;;;;5093625;28;20034;-77
2022/03/14 05:37:00;;;;;;;14.45;7.00;;;9.00;99.90;;;;;;5093895;28;20016;-77
2022/03/14 05:39:26;;;;;;;13.88;6.18;;;9.00;99.90;;;;;;5093716;28;20099;-76
2022/03/14 05:41:51;;;;;;;13.98;7.25;;;8.90;99.90;;;;;;5093823;28;20016;-76
2022/03/14 05:44:17;;;;;;;12.10;5.78;;;9.10;99.90;;;;;;5093879;28;20468;-76
2022/03/14 05:46:42;;;;;;;10.63;5.45;;;8.90;99.90;;;;;;5092684;28;20085;-76
2022/03/14 05:49:08;;;;;;;14.35;6.95;;;8.90;99.90;;;;;;5093382;28;20516;-76
2022/03/14 05:51:38;;;;;;;11.48;5.35;;;8.90;99.90;;;;;;5093759;28;20028;-77
2022/03/14 05:54:04;;;;;;;14.57;6.20;;;9.00;99.90;;;;;;5092175;28;20055;-77
2022/03/14 05:56:31;;;;;;;14.55;6.40;;;8.90;99.90;;;;;;5093751;28;20456;-76
2022/03/14 05:58:56;;;;;;;15.82;7.65;;;8.90;99.90;;;;;;5092110;28;20020;-76
2022/03/14 06:01:22;;;;;;;12.13;6.43;;;8.90;99.90;;;;;;5093903;28;20115;-77
2022/03/14 06:03:49;;;;;;;14.50;6.50;;;8.90;99.90;;;;;;5092822;28;20448;-77
2022/03/14 06:06:15;;;;;;;20.48;7.28;;;8.90;99.90;;;;;;5093304;28;20434;-76
2022/03/14 06:08:40;;;;;;;16.33;7.93;;;8.90;99.90;;;;;;5092119;28;20021;-76
2022/03/14 06:11:07;;;;;;;15.38;7.00;;;8.90;99.90;;;;;;5093841;28;20103;-76
2022/03/14 06:13:33;;;;;;;13.57;7.18;;;8.80;99.90;;;;;;5093920;28;20100;-76
2022/03/14 06:15:58;;;;;;;15.68;6.68;;;8.90;99.90;;;;;;5093486;28;20480;-76
2022/03/14 06:18:24;;;;;;;11.25;5.65;;;8.80;99.90;;;;;;5092737;28;20066;-76
2022/03/14 06:20:49;;;;;;;16.13;6.60;;;8.80;99.90;;;;;;5093833;28;20044;-76
2022/03/14 06:23:16;;;;;;;14.60;6.03;;;8.80;99.90;;;;;;5093815;28;20035;-76
2022/03/14 06:25:42;;;;;;;13.25;5.63;;;8.80;99.90;;;;;;5093348;28;20024;-76
2022/03/14 06:28:08;;;;;;;11.60;5.60;;;8.80;99.90;;;;;;5093123;28;20024;-75
2022/03/14 06:30:34;;;;;;;11.85;4.93;;;8.90;99.90;;;;;;5092155;28;20158;-73
2022/03/14 06:33:00;;;;;;;13.90;5.25;;;8.90;99.90;;;;;;5093212;28;20427;-76
2022/03/14 06:35:25;;;;;;;15.18;6.38;;;8.90;99.90;;;;;;5093138;28;20016;-75
2022/03/14 06:37:51;;;;;;;9.35;4.55;;;8.90;99.90;;;;;;5093818;28;20047;-75
2022/03/14 06:40:17;;;;;;;15.48;5.03;;;8.90;99.90;;;;;;5093356;28;20536;-75
2022/03/14 06:42:50;;;;;;;10.80;5.05;;;8.90;99.90;;;;;;5092944;28;20074;-75
2022/03/14 06:45:20;;;;;;;10.30;4.60;;;8.90;99.90;;;;;;5093159;28;20020;-73
2022/03/14 06:47:46;;;;;;;10.25;5.53;;;8.80;99.90;;;;;;5092274;28;20028;-75
2022/03/14 06:50:14;;;;;;;13.07;5.82;;;8.80;99.90;;;;;;5093034;28;20058;-75
2022/03/14 06:52:39;;;;;;;14.60;6.72;;;8.80;99.90;;;;;;5092983;28;20090;-75
2022/03/14 06:55:05;;;;;;;11.40;6.45;;;8.80;99.90;;;;;;5093031;28;20016;-74
2022/03/14 06:57:32;;;;;;;12.77;5.75;;;8.90;99.90;;;;;;5092865;28;20485;-73
2022/03/14 06:59:57;;;;;;;10.43;5.40;;;8.90;99.90;;;;;;5096510;28;20059;-74
2022/03/14 07:02:29;;;;;;;9.65;5.40;;;8.90;99.90;;;;;;5096558;28;20052;-73
2022/03/14 07:04:54;;;;;;;13.20;7.00;;;8.90;99.90;;;;;;5096883;28;20035;-75
2022/03/14 07:07:20;;;;;;;10.32;5.43;;;8.80;99.90;;;;;;5096365;28;20489;-75
2022/03/14 07:09:46;;;;;;;13.95;6.88;;;8.90;99.90;;;;;;5096342;28;20024;-76
2022/03/14 07:12:12;;;;;;;13.20;6.93;;;8.90;99.90;;;;;;5096176;28;20519;-76
2022/03/14 07:14:39;;;;;;;16.42;5.50;;;8.80;99.90;;;;;;5096555;28;20481;-76
2022/03/14 07:17:04;;;;;;;16.00;7.28;;;8.90;99.90;;;;;;5096328;28;20036;-75
2022/03/14 07:19:30;;;;;;;15.35;7.13;;;8.80;99.90;;;;;;5095031;28;20028;-75
2022/03/14 07:21:55;;;;;;;18.02;8.13;;;8.90;99.90;;;;;;5094596;28;20473;-75
2022/03/14 07:24:21;;;;;;;16.65;6.95;;;9.00;99.90;;;;;;5095979;28;20115;-75
2022/03/14 07:26:47;;;;;;;13.48;7.03;;;9.00;99.90;;;;;;5096125;28;20396;-76
2022/03/14 07:29:13;;;;;;;13.13;6.82;;;9.00;99.90;;;;;;5092372;28;20023;-76
2022/03/14 07:31:41;;;;;;;13.75;7.40;;;9.00;99.90;;;;;;5093344;28;20049;-75
2022/03/14 07:34:07;;;;;;;15.13;7.40;;;9.10;99.90;;;;;;5091643;28;20084;-76
2022/03/14 07:36:34;;;;;;;15.93;6.57;;;9.20;99.90;;;;;;5092277;28;20106;-76
2022/03/14 07:39:06;;;;;;;10.35;6.30;;;9.20;99.90;;;;;;5093392;28;20020;-76
2022/03/14 07:41:32;;;;;;;12.02;5.70;;;9.20;99.90;;;;;;5095961;28;20054;-76
2022/03/14 07:44:00;;;;;;;11.25;5.82;;;9.20;99.90;;;;;;5095659;28;20020;-76
2022/03/14 07:46:26;;;;;;;12.20;6.30;;;9.30;99.90;;;;;;5094118;28;20047;-75
2022/03/14 07:48:52;;;;;;;12.30;6.55;;;9.30;99.90;;;;;;5095649;28;20038;-75
2022/03/14 07:51:18;;;;;;;10.75;5.70;;;9.40;99.90;;;;;;5096139;28;20032;-76
2022/03/14 07:53:43;;;;;;;11.70;6.10;;;9.40;99.90;;;;;;5094268;28;20017;-76
2022/03/14 07:56:11;;;;;;;16.67;6.53;;;9.40;99.90;;;;;;5095646;28;20024;-76
2022/03/14 07:58:36;;;;;;;15.45;8.00;;;9.50;99.90;;;;;;5095759;28;20020;-76
2022/03/14 08:01:02;;;;;;;17.35;7.18;;;9.50;99.90;;;;;;5095586;28;20027;-75
2022/03/14 08:03:28;;;;;;;19.85;8.93;;;9.50;99.90;;;;;;5096033;28;20031;-75
2022/03/14 08:05:55;;;;;;;28.63;11.45;;;9.50;99.90;;;;;;5095652;28;20085;-76
2022/03/14 08:08:21;;;;;;;21.98;9.10;;;9.50;99.90;;;;;;5095949;28;20024;-76
2022/03/14 08:10:47;;;;;;;21.88;9.25;;;9.60;99.90;;;;;;5093188;28;20028;-75
2022/03/14 08:13:13;;;;;;;23.55;9.73;;;9.70;99.90;;;;;;5093922;28;20024;-76
2022/03/14 08:15:38;;;;;;;30.63;13.15;;;9.70;99.90;;;;;;5095625;28;20020;-73
2022/03/14 08:18:07;;;;;;;28.55;11.93;;;9.70;99.90;;;;;;5095270;28;20527;-76
2022/03/14 08:20:33;;;;;;;31.05;13.02;;;9.80;99.90;;;;;;5095807;28;20427;-76
2022/03/14 08:23:01;;;;;;;24.77;10.98;;;9.80;99.90;;;;;;5093951;28;20024;-75
2022/03/14 08:25:27;;;;;;;25.75;11.02;;;9.80;99.90;;;;;;5095052;28;20023;-75
2022/03/14 08:27:53;;;;;;;26.15;11.50;;;9.90;99.90;;;;;;5095261;28;20016;-75
2022/03/14 08:30:22;;;;;;;24.40;10.75;;;9.80;99.90;;;;;;5095130;28;20020;-76
2022/03/14 08:32:49;;;;;;;27.60;12.20;;;9.80;99.90;;;;;;5096099;28;20020;-77
2022/03/14 08:35:15;;;;;;;25.13;11.38;;;9.90;99.90;;;;;;5097887;28;20032;-77
2022/03/14 08:37:45;;;;;;;25.17;10.73;;;10.00;99.90;;;;;;5094922;28;20051;-76
2022/03/14 08:40:13;;;;;;;30.58;11.63;;;10.00;99.90;;;;;;5093815;28;20465;-73
2022/03/14 08:42:40;;;;;;;34.13;13.63;;;10.00;99.90;;;;;;5093660;28;20013;-73
2022/03/14 08:45:08;;;;;;;31.67;12.98;;;9.90;99.90;;;;;;5094696;28;20035;-74
2022/03/14 08:47:35;;;;;;;31.35;13.98;;;9.90;99.90;;;;;;5094502;28;20036;-75
2022/03/14 08:50:02;;;;;;;33.03;14.25;;;9.90;99.90;;;;;;5094975;28;20062;-74
2022/03/14 08:52:29;;;;;;;28.50;13.02;;;10.00;99.90;;;;;;5093301;28;20020;-74
2022/03/14 08:54:56;;;;;;;29.75;14.00;;;10.00;99.90;;;;;;5094686;28;20071;-74
2022/03/14 08:57:22;;;;;;;31.88;14.50;;;10.10;99.90;;;;;;5094337;28;20107;-73
2022/03/14 08:59:47;;;;;;;33.42;14.57;;;10.00;99.90;;;;;;5094324;28;20448;-74
2022/03/14 09:02:13;;;;;;;27.73;11.77;;;10.00;99.90;;;;;;5092992;28;20157;-75
2022/03/14 09:04:38;;;;;;;26.02;11.77;;;10.00;99.90;;;;;;5094345;28;20031;-74
2022/03/14 09:07:05;;;;;;;34.67;12.65;;;10.10;99.90;;;;;;5094284;28;20028;-74
2022/03/14 09:09:31;;;;;;;25.17;11.75;;;10.10;99.90;;;;;;5094661;28;20028;-74
2022/03/14 09:11:58;;;;;;;27.67;11.95;;;10.00;99.90;;;;;;5094438;28;20030;-74
2022/03/14 09:14:24;;;;;;;35.45;12.40;;;10.10;99.90;;;;;;5092876;28;20028;-74
2022/03/14 09:16:50;;;;;;;25.50;10.95;;;10.10;99.90;;;;;;5094458;28;20073;-75
2022/03/14 09:19:16;;;;;;;27.83;13.02;;;10.20;99.90;;;;;;5093956;28;20047;-75
2022/03/14 09:21:42;;;;;;;23.35;11.65;;;10.10;99.90;;;;;;5093848;28;20016;-75
2022/03/14 09:24:07;;;;;;;26.55;10.93;;;10.10;99.90;;;;;;5094592;28;20447;-75
2022/03/14 09:26:35;;;;;;;23.00;10.57;;;10.10;99.90;;;;;;5094278;28;20081;-74
2022/03/14 09:29:01;;;;;;;27.33;12.13;;;10.10;99.90;;;;;;5093957;28;20393;-74
2022/03/14 09:31:26;;;;;;;23.02;10.40;;;10.20;99.90;;;;;;5094327;28;20130;-75
2022/03/14 09:33:53;;;;;;;25.30;10.10;;;10.20;99.90;;;;;;5092647;28;20123;-75
2022/03/14 09:36:19;;;;;;;22.48;10.50;;;10.40;99.90;;;;;;5094119;28;20044;-74
2022/03/14 09:38:45;;;;;;;24.80;8.75;;;10.40;99.90;;;;;;5094359;28;20028;-74
2022/03/14 09:41:15;;;;;;;17.55;8.52;;;10.40;99.90;;;;;;5109468;28;20020;-74
2022/03/14 09:43:40;;;;;;;19.02;8.63;;;10.50;99.90;;;;;;5093697;28;20020;-74
2022/03/14 09:46:07;;;;;;;18.33;7.63;;;10.50;99.90;;;;;;5093711;28;20038;-74
2022/03/14 09:48:39;;;;;;;19.98;7.80;;;10.40;99.90;;;;;;5092550;28;20051;-74
2022/03/14 09:51:06;;;;;;;15.85;6.75;;;10.50;99.90;;;;;;5094544;28;20453;-74
2022/03/14 09:53:34;;;;;;;16.88;7.63;;;10.60;99.90;;;;;;5093723;28;20056;-74
2022/03/14 09:56:00;;;;;;;14.10;6.72;;;10.60;99.90;;;;;;5092534;28;20078;-74
2022/03/14 09:58:26;;;;;;;16.77;7.07;;;10.70;99.90;;;;;;5093610;28;20020;-74
2022/03/14 10:00:51;;;;;;;14.93;6.25;;;10.70;99.90;;;;;;5093877;28;20074;-74
2022/03/14 10:03:18;;;;;;;14.05;5.97;;;10.80;99.90;;;;;;5094094;28;20053;-74
2022/03/14 10:05:44;;;;;;;17.65;6.30;;;10.80;99.90;;;;;;5094222;28;20091;-74
2022/03/14 10:08:11;;;;;;;18.85;6.43;;;10.80;99.90;;;;;;5094618;28;20020;-74
2022/03/14 10:10:38;;;;;;;13.40;5.90;;;10.70;99.90;;;;;;5093713;28;20016;-74
2022/03/14 10:13:09;;;;;;;18.52;6.72;;;10.70;99.90;;;;;;5093662;28;20479;-74
2022/03/14 10:15:37;;;;;;;18.48;8.20;;;10.60;99.90;;;;;;5109430;28;20365;-74
2022/03/14 10:18:13;;;;;;;18.60;8.05;;;10.70;99.90;;;;;;5093627;28;20020;-74
2022/03/14 10:20:58;;;;;;;21.27;8.50;;;10.70;99.90;;;;;;5094094;28;20023;-74
2022/03/14 10:23:33;;;;;;;12.30;5.65;;;10.70;99.90;;;;;;5109582;28;20023;-74
2022/03/14 10:26:00;;;;;;;15.55;6.30;;;10.80;99.90;;;;;;5093525;28;20027;-74
2022/03/14 10:28:36;;;;;;;13.32;5.53;;;10.90;99.90;;;;;;5109472;28;20055;-74
2022/03/14 10:31:03;;;;;;;13.68;4.70;;;11.00;99.90;;;;;;5093675;28;20020;-74
2022/03/14 10:33:32;;;;;;;10.70;4.60;;;11.10;99.90;;;;;;5094674;28;20036;-74
2022/03/14 10:35:57;;;;;;;;;;;11.20;99.90;;;;;;5097536;28;20024;-74
2022/03/14 10:38:25;;;;;;;11.55;4.38;;;11.10;99.90;;;;;;5097188;28;19904;-75
2022/03/14 10:40:51;;;;;;;9.05;4.13;;;11.20;99.90;;;;;;5113069;28;20016;-74
2022/03/14 10:43:35;;;;;;;12.23;4.68;;;11.00;99.90;;;;;;5095734;28;20089;-74
2022/03/14 10:46:04;;;;;;;15.55;4.97;;;11.10;99.90;;;;;;5096963;28;20044;-74
2022/03/14 10:48:43;;;;;;;16.48;6.18;;;11.00;99.90;;;;;;5096794;28;20533;-74
2022/03/14 10:51:10;;;;;;;15.15;4.93;;;11.10;99.90;;;;;;5097086;28;20024;-75
2022/03/14 10:53:47;;;;;;;13.82;6.18;;;11.00;99.90;;;;;;5095524;28;20503;-74
2022/03/14 10:56:13;;;;;;;17.00;5.70;;;11.00;99.90;;;;;;5097521;28;20389;-75
2022/03/14 10:58:39;;;;;;;13.63;5.75;;;11.10;99.90;;;;;;5097985;28;20477;-75
2022/03/14 11:01:07;;;;;;;17.80;6.90;;;11.10;99.90;;;;;;5097434;28;20175;-75
2022/03/14 11:03:35;;;;;;;17.08;5.47;;;11.20;99.90;;;;;;5097161;28;20016;-75
2022/03/14 11:06:05;;;;;;;14.70;5.30;;;11.20;99.90;;;;;;5112748;28;20448;-74
2022/03/14 11:08:40;;;;;;;15.98;4.65;;;11.30;99.90;;;;;;5112652;28;20027;-74
2022/03/14 11:11:11;;;;;;;13.38;4.68;;;11.50;99.90;;;;;;5097219;28;20030;-75
2022/03/14 11:13:44;;;;;;;16.27;5.80;;;11.50;99.90;;;;;;5096853;28;20020;-74
2022/03/14 11:16:30;;;;;;;12.25;4.35;;;11.70;99.90;;;;;;5095171;28;20078;-75
2022/03/14 11:18:56;;;;;;;6.40;3.20;;;11.90;99.90;;;;;;5096089;28;20024;-74
2022/03/14 11:21:24;;;;;;;17.65;4.85;;;11.90;99.90;;;;;;5096238;28;20024;-74
2022/03/14 11:23:51;;;;;;;11.07;4.47;;;11.90;99.90;;;;;;5096286;28;20038;-74
2022/03/14 11:26:24;;;;;;;12.27;3.95;;;12.30;99.90;;;;;;5096219;28;20055;-74
2022/03/14 11:28:52;;;;;;;7.25;3.35;;;12.50;99.90;;;;;;5095979;28;20081;-75
2022/03/14 11:31:19;;;;;;;14.82;4.97;;;12.40;99.90;;;;;;5095888;28;20028;-75
2022/03/14 11:33:46;;;;;;;9.40;4.55;;;12.70;99.90;;;;;;5095805;28;20413;-77
2022/03/14 11:36:12;;;;;;;9.10;3.13;;;13.00;99.90;;;;;;5096049;28;20104;-75
2022/03/14 11:38:39;;;;;;;10.25;4.35;;;13.30;99.90;;;;;;5095824;28;20024;-75
2022/03/14 11:41:05;;;;;;;14.35;3.25;;;13.60;99.90;;;;;;5092762;28;20464;-75
2022/03/14 11:43:31;;;;;;;8.98;3.15;;;13.60;99.90;;;;;;5090781;28;20060;-75
2022/03/14 11:46:00;;;;;;;12.32;2.63;;;13.60;99.90;;;;;;5090463;28;20077;-75
2022/03/14 11:48:30;;;;;;;8.30;2.92;;;13.40;99.90;;;;;;5090651;28;20039;-75
2022/03/14 11:50:56;;;;;;;6.70;2.60;;;13.40;99.90;;;;;;5093810;28;20056;-75
2022/03/14 11:53:23;;;;;;;10.07;3.05;;;13.30;99.90;;;;;;5094385;28;20035;-75
2022/03/14 11:55:51;;;;;;;8.15;2.42;;;13.30;99.90;;;;;;5095411;28;20020;-75
2022/03/14 11:58:37;;;;;;;6.18;2.40;;;13.10;99.90;;;;;;5094635;28;20170;-75
2022/03/14 12:01:19;;;;;;;11.48;3.05;;;13.00;99.90;;;;;;5095576;28;20034;-75
2022/03/14 12:03:53;;;;;;;10.75;2.67;;;12.90;99.90;;;;;;5095989;28;20548;-75
2022/03/14 12:06:47;;;;;;;8.60;2.20;;;12.90;99.90;;;;;;5095223;28;20028;-74
2022/03/14 12:09:25;;;;;;;10.25;2.53;;;13.10;99.90;;;;;;5095015;28;20399;-74
2022/03/14 12:11:52;;;;;;;10.23;2.88;;;12.90;99.90;;;;;;5093418;28;20489;-74
2022/03/14 12:14:53;;;;;;;9.77;2.97;;;13.00;99.90;;;;;;5095259;28;20381;-75
2022/03/14 12:17:19;;;;;;;7.85;2.75;;;13.10;99.90;;;;;;5095028;28;20012;-75
2022/03/14 12:19:49;;;;;;;10.23;3.13;;;13.20;99.90;;;;;;5094937;28;20036;-75
2022/03/14 12:22:35;;;;;;;9.98;3.25;;;13.20;99.90;;;;;;5093660;28;20028;-74
2022/03/14 12:25:05;;;;;;;8.60;3.55;;;13.00;99.90;;;;;;5095334;28;20047;-75
2022/03/14 12:27:35;;;;;;;8.27;3.35;;;12.90;99.90;;;;;;5095224;28;20035;-75
2022/03/14 12:30:27;;;;;;;4.55;2.40;;;12.70;99.90;;;;;;5094832;28;20099;-76
2022/03/14 12:32:54;;;;;;;8.10;3.03;;;12.60;99.90;;;;;;5094386;28;20031;-74
2022/03/14 12:35:22;;;;;;;5.47;2.60;;;12.90;99.90;;;;;;5094758;28;20118;-75
2022/03/14 12:37:52;;;;;;;9.32;3.10;;;13.00;99.90;;;;;;5095128;28;20031;-75
2022/03/14 12:40:21;;;;;;;6.43;2.20;;;13.40;99.90;;;;;;5093339;28;20507;-75
2022/03/14 12:42:51;;;;;;;9.52;2.70;;;14.00;99.90;;;;;;5094118;28;20046;-74
2022/03/14 12:45:47;;;;;;;10.23;2.70;;;14.20;99.90;;;;;;5094424;28;20028;-75